Time;durP1;ratioP1;P1;durP2;ratioP2;P2;SDS_P1;SDS_P2;PMS_P1;PMS_P2;Temp;Humidity;BMP_temperature;BMP_pressure;BME280_temperature;BME280_humidity;BME280_pressure;Samples;Min_cycle;Max_cycle;Signal;HPM_P1;HPM_P2
2022/11/11 00:00:24;;;;;;;;;;;;;;;5.68;100.00;101066.41;4936015;29;20355;-85
2022/11/11 00:02:49;;;;;;;;;;;;;;;5.66;100.00;101062.00;4934711;29;19965;-85
2022/11/11 00:05:18;;;;;;;;;;;;;;;5.68;100.00;101055.88;4936497;29;19927;-86
2022/11/11 00:07:43;;;;;;;;;;;;;;;5.69;100.00;101059.38;4935839;29;19927;-84
2022/11/11 00:10:09;;;;;;;;;;;;;;;5.70;100.00;101076.91;4937161;29;19919;-85
2022/11/11 00:12:34;;;;;;;;;;;;;;;5.65;100.00;101079.53;4937145;29;19925;-84
2022/11/11 00:14:59;;;;;;;;;;;;;;;5.69;100.00;101080.41;4936870;29;20017;-85
2022/11/11 03:22:34;;;;;;;;;;;;;;;8.45;100.00;101108.25;5099856;23;20372;-85
2022/11/11 03:27:43;;;;;;;;;;;;;;;8.46;100.00;101104.72;4958102;29;19925;-89
2022/11/11 03:30:09;;;;;;;;;;;;;;;8.47;100.00;101109.13;4957052;29;20009;-88
2022/11/11 03:32:35;;;;;;;;;;;;;;;8.49;100.00;101112.59;4957170;29;19926;-88
2022/11/11 03:35:00;;;;;;;;;;;;;;;8.49;100.00;101115.25;4972823;28;19967;-88
2022/11/11 03:40:10;;;;;;;;;;;;;;;8.51;100.00;101113.44;4957940;29;20008;-89
2022/11/11 03:42:36;;;;;;;;;;;;;;;8.52;100.00;101109.03;4956841;29;20017;-89
2022/11/11 03:45:01;;;;;;;;;;;;;;;8.54;100.00;101105.50;4957897;28;20274;-89
2022/11/11 03:47:26;;;;;;;;;;;;;;;8.54;100.00;101110.78;4957052;29;19919;-90
2022/11/11 03:49:54;;;;;;;;;;;;;;;8.58;100.00;101118.66;4956497;29;19914;-85
2022/11/11 03:52:20;;;;;;;;;;;;;;;8.59;100.00;101109.84;4955220;29;20018;-85
2022/11/11 03:54:45;;;;;;;;;;;;;;;8.63;100.00;101106.25;4956184;29;20421;-86
2022/11/11 03:59:54;;;;;;;;;;;;;;;8.66;100.00;101111.50;4957262;29;19930;-86
2022/11/11 04:10:33;;;;;;;;;;;;;;;8.69;100.00;101116.75;4957995;29;19925;-86
2022/11/11 04:23:54;;;;;;;;;;;;;;;8.72;100.00;101120.22;4957039;29;19934;-87
2022/11/11 04:26:20;;;;;;;;;;;;;;;8.74;100.00;101120.19;4957189;28;19922;-87
2022/11/11 04:31:29;;;;;;;;;;;;;;;8.77;100.00;101124.56;4956300;28;19926;-86
2022/11/11 04:33:54;;;;;;;;;;;;;;;8.78;100.00;101126.31;4955607;29;19922;-86
2022/11/11 04:36:19;;;;;;;;;;;;;;;8.77;100.00;101128.06;4970441;28;20254;-86
2022/11/11 04:41:29;;;;;;;;;;;;;;;7.91;100.00;101127.31;4956957;29;20286;-86
2022/11/11 04:46:38;;;;;;;;;;;;;;;7.05;100.00;101136.88;4957073;29;19926;-85
2022/11/11 04:49:03;;;;;;;;;;;;;;;6.87;100.00;101139.63;4955229;29;19922;-85
2022/11/11 04:52:25;;;;;;;;;;;;;;;6.85;100.00;101137.00;4954215;29;19966;-85
2022/11/11 04:54:13;;;;;;;;;;;;;;;6.75;100.00;101140.59;4956383;29;20366;-86
2022/11/11 08:46:28;;;;;;;;;;;;;;;8.16;100.00;101259.09;4929948;29;19933;-93
2022/11/11 08:48:53;;;;;;;;;;;;;;;8.17;100.00;101260.84;4938435;29;19923;-88
2022/11/11 08:51:21;;;;;;;;;;;;;;;8.18;100.00;101260.84;4936451;29;19923;-86
2022/11/11 08:53:46;;;;;;;;;;;;;;;8.22;100.00;101258.13;4938017;29;19919;-87
2022/11/11 08:56:24;;;;;;;;;;;;;;;8.22;100.00;101258.13;4937667;29;19925;-92
2022/11/11 08:58:58;;;;;;;;;;;;;;;8.26;100.00;101259.88;4936544;29;19919;-89
2022/11/11 09:01:23;;;;;;;;;;;;;;;8.26;100.00;101270.44;4937658;29;19919;-88
2022/11/11 09:03:48;;;;;;;;;;;;;;;8.28;100.00;101252.78;4937240;29;19926;-87
2022/11/11 09:06:14;;;;;;;;;;;;;;;8.29;100.00;101254.56;4937291;29;19919;-88
2022/11/11 09:08:55;;;;;;;;;;;;;;;8.29;100.00;101255.41;4937278;29;19969;-93
2022/11/11 09:11:21;;;;;;;;;;;;;;;8.31;100.00;101258.94;4936171;29;20060;-87
2022/11/11 09:13:47;;;;;;;;;;;;;;;8.32;100.00;101260.66;4934306;29;20017;-87
2022/11/11 09:16:12;;;;;;;;;;;;;;;8.34;100.00;101263.31;4935732;29;20038;-87
2022/11/11 09:18:38;;;;;;;;;;;;;;;8.35;100.00;101265.94;4936682;29;19918;-87
2022/11/11 09:21:03;;;;;;;;;;;;;;;8.35;100.00;101265.06;4919870;29;19953;-87
2022/11/11 09:23:28;;;;;;;;;;;;;;;8.37;100.00;101269.41;4937010;29;19919;-87
2022/11/11 09:25:54;;;;;;;;;;;;;;;8.39;100.00;101269.41;4936801;29;19947;-87
2022/11/11 09:28:19;;;;;;;;;;;;;;;8.41;100.00;101267.66;4934766;29;19977;-87
2022/11/11 09:30:44;;;;;;;;;;;;;;;8.43;100.00;101268.53;4935048;29;19966;-87
2022/11/11 09:33:11;;;;;;;;;;;;;;;8.45;100.00;101264.09;4936992;29;20304;-88
2022/11/11 09:35:36;;;;;;;;;;;;;;;8.45;100.00;101263.22;4935504;29;19923;-87
2022/11/11 09:38:02;;;;;;;;;;;;;;;8.48;100.00;101268.47;4935347;29;20013;-87
2022/11/11 09:40:46;;;;;;;;;;;;;;;8.50;100.00;101277.25;4935421;29;19925;-87
2022/11/11 09:43:23;;;;;;;;;;;;;;;8.51;100.00;101282.53;4936624;29;19974;-87
2022/11/11 09:46:00;;;;;;;;;;;;;;;8.53;100.00;101286.03;4934715;29;19958;-87
2022/11/11 09:48:34;;;;;;;;;;;;;;;8.54;100.00;101285.13;4936682;29;19919;-87
2022/11/11 09:51:02;;;;;;;;;;;;;;;8.57;100.00;101286.88;4935069;29;19915;-87
2022/11/11 09:53:41;;;;;;;;;;;;;;;8.60;100.00;101296.53;4935250;29;19919;-88
2022/11/11 09:56:26;;;;;;;;;;;;;;;8.60;100.00;101293.88;4934918;29;19919;-87
2022/11/11 09:59:09;;;;;;;;;;;;;;;8.60;100.00;101291.25;4933363;29;22466;-87
2022/11/11 10:01:41;;;;;;;;;;;;;;;8.61;100.00;101293.00;4935001;29;19950;-86
2022/11/11 10:04:08;;;;;;;;;;;;;;;8.64;100.00;101299.13;4934951;29;20301;-87
2022/11/11 10:06:43;;;;;;;;;;;;;;;8.63;100.00;101280.63;4936815;29;20025;-96
2022/11/11 10:09:30;;;;;;;;;;;;;;;8.65;100.00;101279.75;4935127;29;19970;-88
2022/11/11 10:12:17;;;;;;;;;;;;;;;8.68;100.00;101281.47;4934843;29;20297;-88
2022/11/11 10:14:49;;;;;;;;;;;;;;;8.70;100.00;101277.06;4917800;29;19923;-86
2022/11/11 10:17:17;;;;;;;;;;;;;;;8.69;100.00;101275.28;4934819;29;20286;-88
2022/11/11 10:19:52;;;;;;;;;;;;;;;8.72;100.00;101277.91;4934784;29;20017;-87
2022/11/11 10:22:22;;;;;;;;;;;;;;;8.74;100.00;101278.75;4934954;29;19926;-86
2022/11/11 10:25:06;;;;;;;;;;;;;;;8.74;100.00;101276.09;4934777;29;19918;-89
2022/11/11 10:27:34;;;;;;;;;;;;;;;8.75;100.00;101274.34;4934826;29;19926;-87
2022/11/11 10:30:06;;;;;;;;;;;;;;;8.77;100.00;101277.84;4932591;29;19919;-86
2022/11/11 10:32:33;;;;;;;;;;;;;;;8.26;100.00;101281.00;4936075;29;19926;-87
2022/11/11 10:35:04;;;;;;;;;;;;;;;7.44;100.00;101268.44;4934399;29;19922;-87
2022/11/11 10:37:38;;;;;;;;;;;;;;;7.09;100.00;101264.25;4935557;29;19918;-86
2022/11/11 10:40:33;;;;;;;;;;;;;;;6.89;100.00;101266.97;4934764;29;19919;-88
2022/11/11 10:42:58;;;;;;;;;;;;;;;6.79;100.00;101266.13;4900347;29;19926;-89
2022/11/11 10:45:33;;;;;;;;;;;;;;;6.68;100.00;101260.88;4933214;29;19923;-88
2022/11/11 10:48:01;;;;;;;;;;;;;;;6.62;100.00;101260.94;4934517;29;20382;-87
2022/11/11 10:50:28;;;;;;;;;;;;;;;6.58;100.00;101258.31;4934684;29;19930;-88
2022/11/11 10:53:02;;;;;;;;;;;;;;;6.50;100.00;101258.31;4935755;29;19919;-86
2022/11/11 10:55:37;;;;;;;;;;;;;;;6.44;100.00;101253.06;4935677;29;20401;-88
2022/11/11 10:58:21;;;;;;;;;;;;;;;6.36;100.00;101243.41;4934367;29;19950;-86
2022/11/11 11:00:48;;;;;;;;;;;;;;;6.34;100.00;101247.81;4933304;29;20362;-87
2022/11/11 11:03:20;;;;;;;;;;;;;;;6.27;100.00;101240.81;4935446;29;19923;-91
2022/11/11 11:05:45;;;;;;;;;;;;;;;6.20;100.00;101239.06;4934840;29;19919;-92
2022/11/11 11:08:18;;;;;;;;;;;;;;;6.20;100.00;101239.06;4936060;29;19925;-88
2022/11/11 11:10:54;;;;;;;;;;;;;;;6.16;100.00;101247.88;4895467;29;19987;-88
2022/11/11 11:13:36;;;;;;;;;;;;;;;6.13;100.00;101239.97;4896437;29;19927;-88
2022/11/11 11:16:07;;;;;;;;;;;;;;;6.27;100.00;101243.47;4895542;29;19930;-85
2022/11/11 11:18:33;;;;;;;;;;;;;;;6.16;100.00;101237.34;4895362;29;20405;-86
2022/11/11 11:21:12;;;;;;;;;;;;;;;6.05;100.00;101236.44;4895275;29;19943;-88
2022/11/11 11:23:39;;;;;;;;;;;;;;;6.01;100.00;101238.22;4895677;29;20399;-89
2022/11/11 11:26:32;;;;;;;;;;;;;;;5.98;100.00;101233.84;4895904;29;19919;-87
2022/11/11 11:32:23;;;;;;;;;;;;;;;;;;;;;
2022/11/11 11:37:25;;;;;;;;;;;;;;;5.87;100.00;101230.31;5743700;23;19926;-92
2022/11/11 11:40:01;;;;;;;;;;;;;;;5.82;100.00;101240.84;4958140;28;19918;-93
2022/11/11 11:42:31;;;;;;;;;;;;;;;5.87;100.00;101232.06;4962697;28;19918;-84
2022/11/11 11:45:18;;;;;;;;;;;;;;;5.86;100.00;101236.44;4959935;28;19918;-84
2022/11/11 11:48:09;;;;;;;;;;;;;;;5.91;100.00;101231.19;4960376;28;19925;-89
2022/11/11 12:02:07;;;;;;;;;;;;;;;5.74;100.00;101224.16;4956300;29;19927;-90
2022/11/11 12:04:53;;;;;;;;;;;;;;;5.69;100.00;101227.69;4957767;29;20290;-90
2022/11/11 12:07:25;;;;;;;;;;;;;;;5.68;100.00;101225.91;4956338;29;19926;-89
2022/11/11 12:09:57;;;;;;;;;;;;;;;5.62;100.00;101230.31;4956186;29;19926;-88
2022/11/11 12:12:35;;;;;;;;;;;;;;;5.56;100.00;101227.66;4956120;29;19945;-87
2022/11/11 12:15:02;;;;;;;;;;;;;;;5.73;100.00;101230.31;4954660;29;19973;-86
2022/11/11 12:17:46;;;;;;;;;;;;;;;5.75;100.00;101232.94;4956187;29;20009;-85
2022/11/11 12:20:21;;;;;;;;;;;;;;;5.72;100.00;101238.19;4957332;28;19945;-85
2022/11/11 12:22:56;;;;;;;;;;;;;;;5.57;100.00;101241.72;4956128;29;19919;-87
2022/11/11 12:25:42;;;;;;;;;;;;;;;5.57;100.00;101236.44;4955805;29;19919;-87
2022/11/11 12:28:22;;;;;;;;;;;;;;;5.60;100.00;101233.78;4955769;29;19919;-85
2022/11/11 12:30:54;;;;;;;;;;;;;;;5.55;100.00;101223.31;4954657;29;19925;-88
2022/11/11 12:33:46;;;;;;;;;;;;;;;5.56;100.00;101226.81;4955767;29;19918;-87
2022/11/11 12:36:20;;;;;;;;;;;;;;;5.60;100.00;101225.91;4955491;29;20388;-85
2022/11/11 12:38:59;;;;;;;;;;;;;;;5.51;100.00;101228.56;4956311;29;19939;-86
2022/11/11 12:41:36;;;;;;;;;;;;;;;5.55;100.00;101219.78;4955640;29;19926;-84
2022/11/11 12:44:09;;;;;;;;;;;;;;;5.46;100.00;101226.78;4954254;29;19919;-87
2022/11/11 12:47:01;;;;;;;;;;;;;;;5.42;100.00;101232.03;4956942;28;19914;-85
2022/11/11 12:49:32;;;;;;;;;;;;;;;5.45;100.00;101229.41;4956621;29;19925;-85
2022/11/11 12:52:03;;;;;;;;;;;;;;;5.39;100.00;101224.13;4956832;28;20021;-85
2022/11/11 12:54:45;;;;;;;;;;;;;;;5.42;100.00;101218.88;4955989;28;19937;-84
2022/11/11 12:57:25;;;;;;;;;;;;;;;5.39;100.00;101216.25;4956319;29;20017;-87
2022/11/11 12:59:57;;;;;;;;;;;;;;;5.46;100.00;101223.28;4953911;28;19923;-85
2022/11/11 13:02:34;;;;;;;;;;;;;;;5.51;100.00;101224.16;4955172;29;19919;-85
2022/11/11 13:05:12;;;;;;;;;;;;;;;5.55;100.00;101219.78;4955168;29;19969;-84
2022/11/11 13:07:49;;;;;;;;;;;;;;;5.46;100.00;101233.81;4956384;29;19918;-85
2022/11/11 13:10:19;;;;;;;;;;;;;;;5.38;100.00;101225.03;4956330;28;20406;-84
2022/11/11 13:13:15;;;;;;;;;;;;;;;5.44;100.00;101211.88;4956348;29;20374;-85
2022/11/11 13:15:43;;;;;;;;;;;;;;;5.38;100.00;101225.03;4954837;28;19918;-85
2022/11/11 13:18:14;;;;;;;;;;;;;;;5.36;100.00;101230.28;4954908;29;20001;-84
2022/11/11 13:20:49;;;;;;;;;;;;;;;5.41;100.00;101230.31;4955023;29;20005;-87
2022/11/11 13:23:14;;;;;;;;;;;;;;;5.41;100.00;101225.03;4954800;29;19925;-86
2022/11/11 13:25:48;;;;;;;;;;;;;;;5.41;100.00;101231.16;4954887;29;19918;-86
2022/11/11 13:28:21;;;;;;;;;;;;;;;5.34;100.00;101225.91;4955916;28;19925;-85
2022/11/11 13:30:47;;;;;;;;;;;;;;;5.35;100.00;101225.91;4953536;29;19954;-85
2022/11/11 13:33:34;;;;;;;;;;;;;;;5.37;100.00;101226.75;4954607;29;20314;-85
2022/11/11 13:36:04;;;;;;;;;;;;;;;5.37;100.00;101231.16;4955000;29;20017;-86
2022/11/11 13:38:34;;;;;;;;;;;;;;;5.34;100.00;101226.75;4955781;28;19926;-85
2022/11/11 13:41:03;;;;;;;;;;;;;;;5.33;100.00;101230.28;4954514;29;19923;-85
2022/11/11 13:43:28;;;;;;;;;;;;;;;5.43;100.00;101231.16;4953722;29;19919;-86
2022/11/11 13:45:57;;;;;;;;;;;;;;;5.40;100.00;101229.41;4953878;29;19977;-86
2022/11/11 13:48:27;;;;;;;;;;;;;;;5.37;100.00;101226.75;4954323;29;20340;-85
2022/11/11 13:50:53;;;;;;;;;;;;;;;5.34;100.00;101241.66;4954445;29;19920;-87
2022/11/11 13:53:27;;;;;;;;;;;;;;;5.38;100.00;101239.03;4954174;29;19993;-86
2022/11/11 13:55:59;;;;;;;;;;;;;;;5.37;100.00;101245.16;4954322;29;19923;-85
2022/11/11 13:58:36;;;;;;;;;;;;;;;5.88;100.00;101237.31;4955484;28;19941;-85
2022/11/11 14:01:12;;;;;;;;;;;;;;;6.45;100.00;101232.00;4954134;28;20340;-86
2022/11/11 14:06:32;;;;;;;;;;;;;;;6.97;100.00;101236.16;4955362;29;19934;-85
2022/11/11 14:09:03;;;;;;;;;;;;;;;7.12;100.00;101234.38;4955420;29;19923;-86
2022/11/11 14:11:30;;;;;;;;;;;;;;;7.21;100.00;101229.03;4955377;28;20674;-86
2022/11/11 14:14:21;;;;;;;;;;;;;;;7.30;100.00;101222.84;4953878;28;19946;-85
2022/11/11 14:16:55;;;;;;;;;;;;;;;7.39;100.00;101228.06;4955284;28;19926;-86
2022/11/11 14:19:22;;;;;;;;;;;;;;;7.47;100.00;101218.31;4955179;28;19925;-85
2022/11/11 14:21:49;;;;;;;;;;;;;;;7.54;100.00;101221.78;4955484;28;20448;-86
2022/11/11 14:24:50;;;;;;;;;;;;;;;7.60;100.00;101229.66;4953936;29;19955;-86
2022/11/11 14:27:20;;;;;;;;;;;;;;;7.65;100.00;101227.84;4933941;29;19919;-86
2022/11/11 14:29:57;;;;;;;;;;;;;;;7.71;100.00;101227.81;4933848;29;19925;-85
2022/11/11 14:32:34;;;;;;;;;;;;;;;7.75;100.00;101221.59;4953914;29;19918;-86
2022/11/11 14:35:16;;;;;;;;;;;;;;;7.80;100.00;101225.09;4955757;28;20069;-86
2022/11/11 14:37:59;;;;;;;;;;;;;;;7.86;100.00;101218.00;4914831;29;19919;-90
2022/11/11 14:40:31;;;;;;;;;;;;;;;7.91;100.00;101221.47;4914662;29;19919;-86
2022/11/11 14:42:57;;;;;;;;;;;;;;;7.92;100.00;101212.69;4914723;29;20009;-90
2022/11/11 14:45:22;;;;;;;;;;;;;;;7.96;100.00;101214.38;4913068;29;20107;-85
2022/11/11 14:47:48;;;;;;;;;;;;;;;7.99;100.00;101209.06;4914985;29;19935;-85
2022/11/11 14:50:23;;;;;;;;;;;;;;;7.98;100.00;101216.13;4914613;29;19919;-86
2022/11/11 14:52:48;;;;;;;;;;;;;;;8.03;100.00;101210.81;4914651;29;20038;-86
2022/11/11 14:55:26;;;;;;;;;;;;;;;8.04;100.00;101207.28;4914418;29;19919;-87
2022/11/11 14:58:07;;;;;;;;;;;;;;;8.09;100.00;101202.84;4898512;29;19919;-85
2022/11/11 15:00:43;;;;;;;;;;;;;;;8.13;100.00;101209.81;4897143;29;19923;-86
2022/11/11 15:03:14;;;;;;;;;;;;;;;8.14;100.00;101203.66;4962004;28;19973;-86
2022/11/11 15:05:39;;;;;;;;;;;;;;;8.16;100.00;101193.94;4953685;29;19954;-86
2022/11/11 15:08:19;;;;;;;;;;;;;;;8.16;100.00;101193.94;4954912;29;19968;-87
2022/11/11 15:11:04;;;;;;;;;;;;;;;8.19;100.00;101191.28;4954747;28;20035;-86
2022/11/11 15:13:45;;;;;;;;;;;;;;;8.21;100.00;101180.69;4953888;28;20004;-87
2022/11/11 15:16:16;;;;;;;;;;;;;;;8.24;100.00;101187.72;4955721;28;19918;-88
2022/11/11 15:18:47;;;;;;;;;;;;;;;8.25;100.00;101190.34;4956964;29;20289;-87
2022/11/11 15:21:13;;;;;;;;;;;;;;;8.28;100.00;101189.41;4957135;29;19919;-87
2022/11/11 15:23:46;;;;;;;;;;;;;;;8.31;100.00;101190.28;4958305;28;20275;-86
2022/11/11 15:26:20;;;;;;;;;;;;;;;8.33;100.00;101188.50;4957162;29;19914;-88
2022/11/11 15:29:04;;;;;;;;;;;;;;;8.36;100.00;101185.81;4955758;29;19923;-85
2022/11/11 15:31:40;;;;;;;;;;;;;;;8.37;100.00;101184.03;4956744;29;20374;-89
2022/11/11 15:34:08;;;;;;;;;;;;;;;8.39;100.00;101184.88;4958206;28;19919;-90
2022/11/11 15:36:42;;;;;;;;;;;;;;;8.39;100.00;101187.53;4956943;29;20325;-88
2022/11/11 15:39:14;;;;;;;;;;;;;;;8.42;100.00;101187.50;4956750;29;20401;-87
2022/11/11 15:41:46;;;;;;;;;;;;;;;8.43;100.00;101189.28;4956392;29;19919;-90
2022/11/11 15:44:26;;;;;;;;;;;;;;;8.42;100.00;101187.50;4956179;29;20263;-89
2022/11/11 15:46:52;;;;;;;;;;;;;;;8.45;100.00;101191.91;4957093;29;19915;-88
2022/11/11 15:49:37;;;;;;;;;;;;;;;8.45;100.00;101198.06;4958226;29;19966;-89
2022/11/11 15:52:05;;;;;;;;;;;;;;;8.48;100.00;101192.75;4957080;29;20373;-91
2022/11/11 15:54:37;;;;;;;;;;;;;;;8.51;100.00;101192.69;4957749;28;19961;-86
2022/11/11 15:57:32;;;;;;;;;;;;;;;8.50;100.00;101192.72;4957862;28;20431;-87
2022/11/11 15:59:58;;;;;;;;;;;;;;;8.53;100.00;101185.63;4950886;28;19930;-87
2022/11/11 16:02:37;;;;;;;;;;;;;;;8.56;100.00;101191.78;4957631;29;20366;-87
2022/11/11 16:05:30;;;;;;;;;;;;;;;8.54;100.00;101192.66;4956278;29;20378;-88
2022/11/11 16:08:05;;;;;;;;;;;;;;;8.59;100.00;101191.75;4957910;28;19926;-91
2022/11/11 16:10:46;;;;;;;;;;;;;;;;;;;;;
2022/11/11 16:13:21;;;;;;;;;;;;;;;;;;;;;
2022/11/11 16:15:52;;;;;;;;;;;;;;;8.64;100.00;101182.84;4956673;29;19922;-88
2022/11/11 16:18:38;;;;;;;;;;;;;;;8.65;100.00;101181.13;4958401;28;19918;-89
2022/11/11 16:23:52;;;;;;;;;;;;;;;8.68;100.00;101175.75;4953926;28;19918;-86
2022/11/11 16:26:21;;;;;;;;;;;;;;;8.69;100.00;101185.44;4957187;29;19974;-89
2022/11/11 16:29:22;;;;;;;;;;;;;;;8.68;100.00;101187.22;4969750;28;19918;-89
2022/11/11 16:31:57;;;;;;;;;;;;;;;8.69;100.00;101183.66;4955016;29;20416;-86
2022/11/11 16:34:28;;;;;;;;;;;;;;;8.71;100.00;101183.66;4958233;28;19918;-92
2022/11/11 16:37:01;;;;;;;;;;;;;;;8.74;100.00;101191.53;4956342;29;19918;-88
2022/11/11 16:39:29;;;;;;;;;;;;;;;8.76;100.00;101189.78;4957054;29;20022;-89
2022/11/11 16:41:56;;;;;;;;;;;;;;;8.77;100.00;101199.44;4956701;29;19941;-92
2022/11/11 16:44:42;;;;;;;;;;;;;;;7.71;100.00;101197.91;4960174;29;19922;-88
2022/11/11 16:47:27;;;;;;;;;;;;;;;7.25;100.00;101196.50;4956093;29;20377;-93
2022/11/11 16:50:01;;;;;;;;;;;;;;;7.02;100.00;101192.25;4955840;29;20456;-88
2022/11/11 16:52:27;;;;;;;;;;;;;;;6.96;100.00;101201.94;4955489;29;19978;-88
2022/11/11 16:54:55;;;;;;;;;;;;;;;6.87;100.00;101201.09;4961221;29;19918;-92
2022/11/11 16:57:25;;;;;;;;;;;;;;;6.82;100.00;101205.50;4957165;29;19918;-90
2022/11/11 16:59:54;;;;;;;;;;;;;;;6.69;100.00;101203.84;4963314;23;19931;-87
2022/11/11 17:02:48;;;;;;;;;;;;;;;6.69;100.00;101204.69;4959101;29;19973;-84
2022/11/11 17:05:21;;;;;;;;;;;;;;;6.63;100.00;101204.72;4935857;29;19918;-92
2022/11/11 17:07:46;;;;;;;;;;;;;;;6.60;100.00;101214.41;4954224;29;19922;-90
2022/11/11 17:10:30;;;;;;;;;;;;;;;;;;;;;
2022/11/11 17:13:03;;;;;;;;;;;;;;;6.53;100.00;101208.28;4955808;29;20285;-89
2022/11/11 17:15:31;;;;;;;;;;;;;;;6.46;100.00;101206.53;4952881;29;20400;-90
2022/11/11 17:18:13;;;;;;;;;;;;;;;6.39;100.00;101207.44;4934613;29;19926;-89
2022/11/11 17:23:09;;;;;;;;;;;;;;;6.30;100.00;101214.50;5018260;23;19936;-91
2022/11/11 17:25:34;;;;;;;;;;;;;;;6.24;100.00;101209.25;4954858;29;20457;-90
2022/11/11 17:28:09;;;;;;;;;;;;;;;;;;;;;
2022/11/11 17:30:36;;;;;;;;;;;;;;;6.30;100.00;101209.22;4956029;29;19918;-91
2022/11/11 17:33:10;;;;;;;;;;;;;;;6.18;100.00;101211.88;4955265;29;19925;-89
2022/11/11 17:35:42;;;;;;;;;;;;;;;6.09;100.00;101219.78;4955885;29;19941;-90
2022/11/11 17:38:08;;;;;;;;;;;;;;;6.10;100.00;101218.94;4955871;29;19925;-90
2022/11/11 17:40:35;;;;;;;;;;;;;;;5.96;100.00;101214.53;4953666;28;20314;-88
2022/11/11 17:43:17;;;;;;;;;;;;;;;5.94;100.00;101224.16;4955241;29;19983;-88
2022/11/11 17:45:52;;;;;;;;;;;;;;;5.97;100.00;101231.22;4952317;29;19972;-89
2022/11/11 17:48:18;;;;;;;;;;;;;;;5.91;100.00;101223.28;4953198;29;19919;-89
2022/11/11 17:50:43;;;;;;;;;;;;;;;5.91;100.00;101223.28;4953303;28;19977;-92
2022/11/11 17:53:11;;;;;;;;;;;;;;;5.99;100.00;101229.47;4930836;29;19930;-90
2022/11/11 17:55:36;;;;;;;;;;;;;;;5.91;100.00;101232.06;4953349;28;20009;-89
2022/11/11 17:58:01;;;;;;;;;;;;;;;5.86;100.00;101236.44;4956745;28;20035;-88
2022/11/11 18:00:30;;;;;;;;;;;;;;;5.85;100.00;101239.06;4950834;29;19945;-90
2022/11/11 18:02:57;;;;;;;;;;;;;;;5.87;100.00;101232.97;4956009;29;19926;-85
2022/11/11 18:05:32;;;;;;;;;;;;;;;;;;;;;
2022/11/11 18:08:07;;;;;;;;;;;;;;;5.81;100.00;101238.22;4950465;28;19928;-92
2022/11/11 18:15:57;;;;;;;;;;;;;;;5.81;100.00;101238.22;4935951;29;19927;-87
2022/11/11 18:21:13;;;;;;;;;;;;;;;5.84;100.00;101240.84;5429246;23;19950;-88
2022/11/11 18:23:41;;;;;;;;;;;;;;;5.77;100.00;101234.69;4935912;29;20001;-85
2022/11/11 18:26:12;;;;;;;;;;;;;;;5.85;100.00;101232.06;4951676;29;19931;-85
2022/11/11 18:28:37;;;;;;;;;;;;;;;5.87;100.00;101225.06;4934349;29;20323;-85
2022/11/11 18:31:09;;;;;;;;;;;;;;;5.87;100.00;101222.44;4936231;29;20009;-85
2022/11/11 18:36:13;;;;;;;;;;;;;;;5.80;100.00;101210.13;5265990;23;19933;-84
2022/11/11 18:38:41;;;;;;;;;;;;;;;5.72;100.00;101204.00;4954710;29;20230;-86
2022/11/11 18:41:07;;;;;;;;;;;;;;;5.71;100.00;101200.53;4966159;28;20361;-85
2022/11/11 18:46:38;;;;;;;;;;;;;;;5.73;100.00;101203.16;4964090;28;19985;-86
2022/11/11 18:49:13;;;;;;;;;;;;;;;5.78;100.00;101207.50;4957652;28;20361;-90
2022/11/11 18:51:49;;;;;;;;;;;;;;;;;;;;;
2022/11/11 18:54:15;;;;;;;;;;;;;;;5.68;100.00;101205.78;4959509;29;19923;-85
2022/11/11 18:56:42;;;;;;;;;;;;;;;5.58;100.00;101204.00;4969564;28;20106;-87
2022/11/11 18:59:10;;;;;;;;;;;;;;;5.64;100.00;101207.50;4977298;28;19973;-93
2022/11/11 19:01:37;;;;;;;;;;;;;;;5.71;100.00;101211.03;4964365;28;19922;-87
2022/11/11 19:07:06;;;;;;;;;;;;;;;5.60;100.00;101200.50;5591590;23;20480;-86
2022/11/11 19:13:15;;;;;;;;;;;;;;;5.59;100.00;101203.13;4936821;29;20461;-86
2022/11/11 19:16:14;;;;;;;;;;;;;;;;;;;;;
2022/11/11 19:18:49;;;;;;;;;;;;;;;5.64;100.00;101210.13;4956664;29;20374;-89
2022/11/11 19:21:15;;;;;;;;;;;;;;;5.58;100.00;101219.78;4956717;28;19925;-85
2022/11/11 19:24:14;;;;;;;;;;;;;;;;;;;;;
2022/11/11 19:27:16;;;;;;;;;;;;;;;5.56;100.00;101222.41;4934859;29;19922;-88
2022/11/11 19:40:18;;;;;;;;;;;;;;;5.55;100.00;101225.94;4941449;29;19974;-87
2022/11/11 20:00:29;;;;;;;;;;;;;;;5.52;100.00;101232.91;4971044;23;19926;-87
2022/11/11 20:03:12;;;;;;;;;;;;;;;5.54;100.00;101233.81;4972848;28;19922;-90
2022/11/11 20:06:00;;;;;;;;;;;;;;;5.34;100.00;101233.78;4968441;28;19927;-88
2022/11/11 20:11:26;;;;;;;;;;;;;;;6.57;100.00;101236.34;4947938;28;20017;-92
2022/11/11 20:14:00;;;;;;;;;;;;;;;5.76;100.00;101239.94;4956053;23;19927;-89
2022/11/11 20:16:25;;;;;;;;;;;;;;;5.50;100.00;101240.81;4956423;29;20379;-89
2022/11/11 20:18:57;;;;;;;;;;;;;;;5.38;100.00;101241.69;4960533;28;19925;-92
2022/11/11 20:21:23;;;;;;;;;;;;;;;5.37;100.00;101249.56;4940083;29;20440;-93
2022/11/11 20:23:48;;;;;;;;;;;;;;;5.95;100.00;101257.50;4956032;29;19923;-95
2022/11/11 20:26:15;;;;;;;;;;;;;;;6.33;100.00;101251.34;4951023;29;19962;-92
2022/11/11 20:28:52;;;;;;;;;;;;;;;6.59;100.00;101238.97;4955650;29;19970;-93
2022/11/11 20:31:17;;;;;;;;;;;;;;;6.75;100.00;101256.50;4956662;28;19961;-94
2022/11/11 20:33:43;;;;;;;;;;;;;;;6.87;100.00;101259.06;4959154;29;20278;-91
2022/11/11 20:36:12;;;;;;;;;;;;;;;6.96;100.00;101254.66;4958890;29;20382;-89
2022/11/11 20:38:38;;;;;;;;;;;;;;;7.06;100.00;101243.19;4946504;29;19922;-91
2022/11/11 20:41:10;;;;;;;;;;;;;;;7.12;100.00;101251.06;4958137;29;20267;-85
2022/11/11 20:43:35;;;;;;;;;;;;;;;7.18;100.00;101251.03;4944179;29;19926;-94
2022/11/11 20:46:01;;;;;;;;;;;;;;;7.24;100.00;101247.47;4940314;29;19918;-95
2022/11/11 20:48:26;;;;;;;;;;;;;;;7.27;100.00;101243.06;4940124;29;19958;-91
2022/11/11 20:53:18;;;;;;;;;;;;;;;7.36;100.00;101249.16;4958716;23;19953;-89
2022/11/11 20:55:43;;;;;;;;;;;;;;;7.38;100.00;101245.63;4954300;28;19927;-88
2022/11/11 20:58:29;;;;;;;;;;;;;;;7.45;100.00;101242.06;4971116;28;19930;-90
2022/11/11 21:00:59;;;;;;;;;;;;;;;7.51;100.00;101229.72;4985248;23;20419;-89
2022/11/11 21:03:24;;;;;;;;;;;;;;;7.54;100.00;101233.19;4970801;28;19933;-89
2022/11/11 21:05:50;;;;;;;;;;;;;;;7.56;100.00;101235.81;4966730;28;20290;-90
2022/11/11 21:08:15;;;;;;;;;;;;;;;7.59;100.00;101235.81;4971698;28;20259;-88
2022/11/11 21:10:41;;;;;;;;;;;;;;;7.61;100.00;101239.28;4955340;28;19930;-89
2022/11/11 21:13:06;;;;;;;;;;;;;;;7.66;100.00;101237.53;4955005;28;19930;-91
2022/11/11 21:15:31;;;;;;;;;;;;;;;7.69;100.00;101232.22;4954244;28;20377;-91
2022/11/11 21:17:56;;;;;;;;;;;;;;;7.70;100.00;101227.81;4966831;28;19930;-92
2022/11/11 21:20:57;;;;;;;;;;;;;;;7.73;100.00;101231.28;4943270;29;19922;-93
2022/11/11 21:23:22;;;;;;;;;;;;;;;7.75;100.00;101229.50;4942549;29;20287;-91
2022/11/11 21:25:48;;;;;;;;;;;;;;;7.79;100.00;101230.38;4955054;28;19923;-87
2022/11/11 21:28:13;;;;;;;;;;;;;;;7.78;100.00;101225.97;4969905;28;19923;-89
2022/11/11 21:30:38;;;;;;;;;;;;;;;7.81;100.00;101226.81;4954308;28;19951;-88
2022/11/11 21:33:03;;;;;;;;;;;;;;;7.82;100.00;101230.34;4956247;29;19981;-93
2022/11/11 21:35:32;;;;;;;;;;;;;;;7.84;100.00;101230.34;4970733;28;19927;-93
2022/11/11 21:38:02;;;;;;;;;;;;;;;7.88;100.00;101232.06;4953768;29;19926;-87
2022/11/11 21:40:30;;;;;;;;;;;;;;;7.89;100.00;101223.25;4956017;29;19971;-90
2022/11/11 21:42:55;;;;;;;;;;;;;;;7.91;100.00;101227.63;4954724;28;19919;-86
2022/11/11 21:45:21;;;;;;;;;;;;;;;7.93;100.00;101217.94;4955356;29;19939;-86
2022/11/11 21:47:46;;;;;;;;;;;;;;;7.93;100.00;101223.22;4953782;29;20025;-88
2022/11/11 21:50:11;;;;;;;;;;;;;;;7.95;100.00;101217.94;4956388;29;19919;-94
2022/11/11 21:52:37;;;;;;;;;;;;;;;7.97;100.00;101226.69;4955412;29;19946;-88
2022/11/11 21:55:02;;;;;;;;;;;;;;;7.97;100.00;101224.06;4970910;28;20054;-91
2022/11/11 21:57:27;;;;;;;;;;;;;;;7.99;100.00;101227.56;4955315;29;20000;-87
2022/11/11 21:59:52;;;;;;;;;;;;;;;8.03;100.00;101225.78;4969824;28;19930;-90
2022/11/11 22:02:21;;;;;;;;;;;;;;;8.03;100.00;101224.00;4968471;28;20013;-90